createdAt,value
2023-05-05T00:00:02.477Z,20.18
2023-05-05T00:02:34.692Z,20.14
2023-05-05T00:05:03.188Z,20.52
2023-05-05T00:07:31.739Z,19.78
2023-05-05T00:09:59.873Z,19.44
2023-05-05T00:12:27.882Z,19.11
2023-05-05T00:14:55.889Z,19.35
2023-05-05T00:17:24.033Z,19.35
2023-05-05T00:19:54.076Z,19.16
2023-05-05T00:22:22.113Z,19.21
2023-05-05T00:24:50.090Z,19.50
2023-05-05T00:27:18.018Z,18.91
2023-05-05T00:29:46.117Z,19.50
2023-05-05T00:32:14.292Z,19.57
2023-05-05T00:34:42.220Z,19.63
2023-05-05T00:37:11.754Z,19.12
2023-05-05T00:39:40.042Z,19.03
2023-05-05T00:42:08.383Z,18.66
2023-05-05T00:44:39.455Z,18.96
2023-05-05T00:47:07.671Z,19.31
2023-05-05T00:49:36.823Z,19.02
2023-05-05T00:52:06.669Z,19.30
2023-05-05T00:54:36.521Z,19.24
2023-05-05T00:57:05.592Z,18.82
2023-05-05T00:59:35.176Z,18.80
2023-05-05T01:02:03.707Z,18.88
2023-05-05T01:04:31.848Z,18.95
2023-05-05T01:07:11.616Z,18.80
2023-05-05T01:09:57.916Z,18.47
2023-05-05T01:12:38.463Z,18.56
2023-05-05T01:15:16.346Z,18.28
2023-05-05T01:17:53.137Z,19.06
2023-05-05T01:20:30.377Z,19.05
2023-05-05T01:23:05.107Z,18.81
2023-05-05T01:26:08.037Z,18.63
2023-05-05T01:28:56.779Z,18.54
2023-05-05T01:31:58.376Z,17.96
2023-05-05T01:34:30.596Z,18.04
2023-05-05T01:37:06.463Z,18.81
2023-05-05T01:39:37.880Z,18.64
2023-05-05T01:42:10.056Z,18.29
2023-05-05T01:44:39.487Z,18.55
2023-05-05T01:47:11.126Z,18.74
2023-05-05T01:49:39.757Z,18.86
2023-05-05T01:52:10.171Z,18.33
2023-05-05T01:54:39.931Z,18.54
2023-05-05T01:57:09.667Z,18.62
2023-05-05T01:59:39.590Z,18.10
2023-05-05T02:02:12.515Z,18.13
2023-05-05T02:04:44.858Z,18.20
2023-05-05T02:07:14.830Z,18.31
2023-05-05T02:09:45.284Z,17.68
2023-05-05T02:12:14.321Z,18.16
2023-05-05T02:14:44.574Z,18.04
2023-05-05T02:17:17.055Z,18.48
2023-05-05T02:19:46.941Z,18.49
2023-05-05T02:22:16.888Z,18.09
2023-05-05T02:24:45.842Z,18.44
2023-05-05T02:27:17.456Z,18.24
2023-05-05T02:29:49.327Z,17.88
2023-05-05T02:32:24.895Z,17.93
2023-05-05T02:34:55.408Z,17.93
2023-05-05T02:37:27.672Z,18.54
2023-05-05T02:40:01.304Z,18.73
2023-05-05T02:42:36.556Z,18.66
2023-05-05T02:45:11.951Z,17.70
2023-05-05T02:47:44.431Z,17.98
2023-05-05T02:50:13.424Z,17.75
2023-05-05T02:52:48.585Z,17.44
2023-05-05T02:55:18.254Z,17.67
2023-05-05T02:57:52.752Z,17.58
2023-05-05T03:00:29.491Z,18.05
2023-05-05T03:03:14.028Z,17.63
2023-05-05T03:05:51.499Z,17.79
2023-05-05T03:08:29.618Z,18.04
2023-05-05T03:11:01.707Z,17.82
2023-05-05T03:13:33.429Z,18.07
2023-05-05T03:16:06.605Z,17.26
2023-05-05T03:18:37.540Z,17.45
2023-05-05T03:21:09.009Z,17.87
2023-05-05T03:23:40.821Z,17.79
2023-05-05T03:26:18.348Z,17.82
2023-05-05T03:28:46.526Z,17.47
2023-05-05T03:31:35.042Z,17.02
2023-05-05T03:34:05.242Z,17.35
2023-05-05T03:36:40.070Z,17.73
2023-05-05T03:39:11.914Z,16.66
2023-05-05T03:41:39.769Z,17.39
2023-05-05T03:44:09.569Z,18.22
2023-05-05T03:46:38.591Z,17.30
2023-05-05T03:49:10.795Z,17.05
2023-05-05T03:51:40.878Z,17.52
2023-05-05T03:54:10.007Z,17.10
2023-05-05T03:56:38.859Z,17.05
2023-05-05T03:59:06.797Z,17.15
2023-05-05T04:01:37.535Z,17.05
2023-05-05T04:04:06.133Z,17.66
2023-05-05T04:06:35.828Z,17.39
2023-05-05T04:09:04.049Z,17.54
2023-05-05T04:11:31.950Z,17.32
2023-05-05T04:14:00.493Z,17.46
2023-05-05T04:16:31.156Z,17.56
2023-05-05T04:19:00.651Z,17.51
2023-05-05T04:21:39.343Z,17.93
2023-05-05T04:24:07.880Z,17.34
2023-05-05T04:26:35.881Z,16.80
2023-05-05T04:29:04.438Z,17.56
2023-05-05T04:31:33.361Z,17.46
2023-05-05T04:34:02.270Z,17.92
2023-05-05T04:36:30.514Z,17.61
2023-05-05T04:38:59.802Z,17.03
2023-05-05T04:41:29.520Z,17.11
2023-05-05T04:43:58.596Z,16.92
2023-05-05T04:46:27.710Z,17.14
2023-05-05T04:48:56.073Z,17.46
2023-05-05T04:51:23.989Z,17.94
2023-05-05T04:53:51.913Z,17.72
2023-05-05T04:56:21.334Z,17.91
2023-05-05T04:58:49.346Z,18.05
2023-05-05T05:01:17.558Z,18.55
2023-05-05T05:03:45.854Z,18.60
2023-05-05T05:06:14.054Z,18.63
2023-05-05T05:08:42.380Z,18.48
2023-05-05T05:11:10.729Z,18.44
2023-05-05T05:13:40.108Z,18.98
2023-05-05T05:16:09.333Z,18.39
2023-05-05T05:18:37.731Z,18.88
2023-05-05T05:21:06.491Z,18.68
2023-05-05T05:23:35.174Z,19.08
2023-05-05T05:26:05.214Z,19.32
2023-05-05T05:28:33.781Z,19.74
2023-05-05T05:31:03.133Z,19.95
2023-05-05T05:33:31.740Z,19.71
2023-05-05T05:36:00.562Z,20.48
2023-05-05T05:38:29.207Z,19.43
2023-05-05T05:41:00.660Z,19.40
2023-05-05T05:43:29.759Z,19.55
2023-05-05T05:45:57.903Z,20.11
2023-05-05T05:48:28.734Z,18.77
2023-05-05T05:50:58.111Z,19.74
2023-05-05T05:53:26.858Z,19.16
2023-05-05T05:55:55.751Z,18.63
2023-05-05T05:58:24.024Z,18.50
2023-05-05T06:00:52.136Z,20.14
2023-05-05T06:03:20.996Z,20.00
2023-05-05T06:05:51.164Z,21.08
2023-05-05T06:08:20.065Z,21.55
2023-05-05T06:10:53.874Z,21.02
2023-05-05T06:13:22.555Z,21.79
2023-05-05T06:15:52.790Z,20.89
2023-05-05T06:18:21.438Z,20.87
2023-05-05T06:20:52.680Z,20.17
2023-05-05T06:23:23.630Z,20.19
2023-05-05T06:25:57.011Z,20.98
2023-05-05T06:28:25.136Z,21.07
2023-05-05T06:30:53.154Z,21.91
2023-05-05T06:33:21.572Z,19.99
2023-05-05T06:35:52.296Z,20.87
2023-05-05T06:38:22.339Z,21.59
2023-05-05T06:40:50.615Z,20.83
2023-05-05T06:43:18.724Z,20.64
2023-05-05T06:45:53.855Z,20.51
2023-05-05T06:48:22.130Z,21.99
2023-05-05T06:50:51.676Z,21.16
2023-05-05T06:53:19.677Z,20.51
2023-05-05T06:55:49.010Z,20.25
2023-05-05T06:58:16.827Z,21.03
2023-05-05T07:00:44.725Z,20.53
2023-05-05T07:03:12.808Z,21.14
2023-05-05T07:05:40.684Z,20.56
2023-05-05T07:08:11.306Z,20.75
2023-05-05T07:10:39.178Z,20.87
2023-05-05T07:13:07.852Z,20.66
2023-05-05T07:15:35.923Z,20.83
2023-05-05T07:18:03.828Z,20.90
2023-05-05T07:20:32.233Z,20.79
2023-05-05T07:23:00.218Z,21.16
2023-05-05T07:25:30.317Z,21.13
2023-05-05T07:27:58.651Z,21.52
2023-05-05T07:30:26.648Z,21.80
2023-05-05T07:32:55.029Z,21.59
2023-05-05T07:35:23.549Z,22.72
2023-05-05T07:37:51.959Z,23.10
2023-05-05T07:40:20.582Z,23.03
2023-05-05T07:42:49.839Z,23.49
2023-05-05T07:45:17.832Z,23.02
2023-05-05T07:47:45.890Z,20.87
2023-05-05T07:50:13.865Z,22.25
2023-05-05T07:52:46.795Z,22.30
2023-05-05T07:55:19.528Z,23.55
2023-05-05T07:57:49.647Z,23.95
2023-05-05T08:00:19.455Z,24.27
2023-05-05T08:02:47.945Z,24.23
2023-05-05T08:05:16.470Z,23.58
2023-05-05T08:07:44.580Z,23.53
2023-05-05T08:10:12.706Z,23.88
2023-05-05T08:12:41.502Z,24.75
2023-05-05T08:15:55.938Z,24.86
2023-05-05T08:19:17.634Z,24.95
2023-05-05T08:22:07.320Z,24.94
2023-05-05T08:24:35.154Z,24.59
2023-05-05T08:27:03.638Z,23.30
2023-05-05T08:29:31.458Z,24.00
2023-05-05T08:32:00.880Z,25.39
2023-05-05T08:34:28.700Z,25.96
2023-05-05T08:36:56.541Z,25.08
2023-05-05T08:39:24.500Z,25.52
2023-05-05T08:41:52.504Z,25.07
2023-05-05T08:44:20.338Z,24.54
2023-05-05T08:46:50.312Z,23.43
2023-05-05T08:49:21.368Z,23.56
2023-05-05T08:51:52.168Z,23.93
2023-05-05T08:54:21.374Z,24.72
2023-05-05T08:56:51.460Z,24.00
2023-05-05T08:59:24.194Z,24.39
2023-05-05T09:01:54.366Z,24.33
2023-05-05T09:04:24.145Z,23.34
2023-05-05T09:06:52.312Z,24.72
2023-05-05T09:09:21.252Z,24.62
2023-05-05T09:11:49.416Z,26.06
2023-05-05T09:14:17.342Z,25.89
2023-05-05T09:16:45.543Z,26.69
2023-05-05T09:19:13.678Z,26.61
2023-05-05T09:21:48.661Z,25.87
2023-05-05T09:24:16.746Z,26.94
2023-05-05T09:26:46.393Z,26.15
2023-05-05T09:29:19.466Z,25.93
2023-05-05T09:32:05.344Z,26.01
2023-05-05T09:34:35.378Z,25.55
2023-05-05T09:37:06.053Z,26.34
2023-05-05T09:39:34.108Z,26.08
2023-05-05T09:42:03.761Z,26.69
2023-05-05T09:44:36.392Z,28.02
2023-05-05T09:47:09.375Z,26.78
2023-05-05T09:49:42.925Z,28.75
2023-05-05T09:52:18.480Z,27.02
2023-05-05T09:54:55.245Z,27.93
2023-05-05T09:57:31.597Z,26.53
2023-05-05T10:00:03.278Z,27.27
2023-05-05T10:02:35.012Z,27.20
2023-05-05T10:05:07.300Z,27.87
2023-05-05T10:07:39.054Z,27.54
2023-05-05T10:10:09.501Z,27.13
2023-05-05T10:12:38.373Z,27.34
2023-05-05T10:15:08.989Z,28.81
2023-05-05T10:17:38.722Z,28.96
2023-05-05T10:20:11.620Z,29.25
2023-05-05T10:22:58.987Z,29.19
2023-05-05T10:25:31.791Z,27.61
2023-05-05T10:28:01.583Z,26.86
2023-05-05T10:30:31.528Z,27.13
2023-05-05T10:33:18.543Z,26.41
2023-05-05T10:35:55.689Z,27.01
2023-05-05T10:38:28.852Z,27.47
2023-05-05T10:40:58.754Z,26.89
2023-05-05T10:43:27.431Z,26.34
2023-05-05T10:45:56.269Z,29.28
2023-05-05T10:48:33.512Z,27.92
2023-05-05T10:51:18.863Z,28.46
2023-05-05T10:54:05.349Z,28.97
2023-05-05T10:56:36.251Z,28.42
2023-05-05T10:59:04.267Z,27.76
2023-05-05T11:01:33.957Z,28.54
2023-05-05T11:04:20.574Z,27.72
2023-05-05T11:07:22.573Z,28.16
2023-05-05T11:10:01.195Z,27.16
2023-05-05T11:12:29.703Z,27.93
2023-05-05T11:15:38.027Z,27.32
2023-05-05T11:18:08.468Z,28.33
2023-05-05T11:21:07.282Z,27.79
2023-05-05T11:23:35.391Z,26.66
2023-05-05T11:26:04.757Z,26.66
2023-05-05T11:28:33.479Z,27.61
2023-05-05T11:31:18.914Z,27.65
2023-05-05T11:33:47.251Z,26.75
2023-05-05T11:36:16.528Z,27.55
2023-05-05T11:39:07.344Z,27.18
2023-05-05T11:42:05.342Z,26.08
2023-05-05T11:44:36.842Z,25.53
2023-05-05T11:47:33.233Z,26.33
2023-05-05T11:50:18.121Z,26.71
2023-05-05T11:52:46.563Z,28.69
2023-05-05T11:55:20.126Z,29.34
2023-05-05T11:57:49.457Z,28.42
2023-05-05T12:00:18.332Z,27.57
2023-05-05T12:02:46.392Z,27.73
2023-05-05T12:05:20.738Z,28.16
2023-05-05T12:07:48.875Z,27.70
2023-05-05T12:10:23.951Z,27.96
2023-05-05T12:12:56.105Z,30.66
2023-05-05T12:15:31.684Z,30.27
2023-05-05T12:18:02.117Z,28.35
2023-05-05T12:20:32.249Z,29.33
2023-05-05T12:23:04.403Z,28.61
2023-05-05T12:25:39.832Z,28.79
2023-05-05T12:28:09.984Z,27.48
2023-05-05T12:30:37.941Z,30.02
2023-05-05T12:33:08.036Z,29.72
2023-05-05T12:35:37.011Z,30.69
2023-05-05T12:38:05.396Z,30.53
2023-05-05T12:40:52.983Z,30.36
2023-05-05T12:43:30.459Z,29.73
2023-05-05T12:46:03.636Z,29.89
2023-05-05T12:48:31.791Z,28.85
2023-05-05T12:51:13.874Z,27.73
2023-05-05T12:53:42.947Z,28.69
2023-05-05T12:56:36.473Z,27.94
2023-05-05T12:59:07.506Z,28.14
2023-05-05T13:01:35.762Z,28.12
2023-05-05T13:04:22.936Z,29.07
2023-05-05T13:06:54.018Z,28.76
2023-05-05T13:09:26.398Z,28.87
2023-05-05T13:11:55.415Z,28.63
2023-05-05T13:14:25.056Z,30.22
2023-05-05T13:16:54.227Z,29.90
2023-05-05T13:19:23.741Z,28.58
2023-05-05T13:21:52.208Z,29.54
2023-05-05T13:24:28.771Z,29.41
2023-05-05T13:27:04.421Z,30.01
2023-05-05T13:29:34.469Z,30.95
2023-05-05T13:32:02.479Z,30.53
2023-05-05T13:34:30.627Z,31.32
2023-05-05T13:36:58.958Z,32.73
2023-05-05T13:39:26.904Z,31.94
2023-05-05T13:41:54.909Z,32.80
2023-05-05T13:44:23.051Z,30.65
2023-05-05T13:46:52.598Z,30.79
2023-05-05T13:49:21.052Z,29.47
2023-05-05T13:51:49.105Z,29.21
2023-05-05T13:54:17.609Z,30.15
2023-05-05T13:56:46.256Z,29.32
2023-05-05T13:59:14.435Z,29.17
2023-05-05T14:01:43.109Z,30.65
2023-05-05T14:04:12.905Z,30.49
2023-05-05T14:06:40.917Z,31.27
2023-05-05T14:09:09.111Z,30.15
2023-05-05T14:11:37.269Z,30.80
2023-05-05T14:14:06.117Z,29.42
2023-05-05T14:16:34.327Z,30.16
2023-05-05T14:19:02.366Z,30.32
2023-05-05T14:21:32.555Z,30.79
2023-05-05T14:24:00.656Z,30.05
2023-05-05T14:26:29.250Z,30.15
2023-05-05T14:28:57.420Z,29.91
2023-05-05T14:31:25.539Z,30.63
2023-05-05T14:33:54.106Z,29.68
2023-05-05T14:36:21.988Z,29.94
2023-05-05T14:38:51.508Z,29.01
2023-05-05T14:41:19.426Z,29.57
2023-05-05T14:43:47.402Z,29.10
2023-05-05T14:46:15.574Z,29.33
2023-05-05T14:48:43.497Z,28.50
2023-05-05T14:51:11.509Z,28.23
2023-05-05T14:53:39.468Z,27.97
2023-05-05T14:56:08.899Z,28.09
2023-05-05T14:58:37.218Z,27.67
2023-05-05T15:01:05.322Z,26.81
2023-05-05T15:03:33.464Z,27.47
2023-05-05T15:06:01.908Z,27.77
2023-05-05T15:08:29.925Z,27.05
2023-05-05T15:10:57.963Z,27.50
2023-05-05T15:13:27.569Z,27.75
2023-05-05T15:15:55.748Z,27.44
2023-05-05T15:18:23.807Z,26.09
2023-05-05T15:20:52.065Z,26.53
2023-05-05T15:23:20.208Z,26.28
2023-05-05T15:25:47.998Z,26.23
2023-05-05T15:28:15.877Z,26.00
2023-05-05T15:30:45.973Z,26.43
2023-05-05T15:33:14.574Z,26.00
2023-05-05T15:35:42.636Z,26.46
2023-05-05T15:38:10.741Z,26.64
2023-05-05T15:40:38.722Z,27.10
2023-05-05T15:43:06.832Z,27.32
2023-05-05T15:45:34.848Z,27.68
2023-05-05T15:48:04.292Z,27.22
2023-05-05T15:50:32.422Z,26.73
2023-05-05T15:53:00.567Z,26.86
2023-05-05T15:55:28.993Z,27.67
2023-05-05T15:57:57.230Z,27.06
2023-05-05T16:00:25.899Z,27.50
2023-05-05T16:02:53.972Z,27.07
2023-05-05T16:05:23.600Z,27.26
2023-05-05T16:07:52.561Z,26.84
2023-05-05T16:10:20.858Z,27.20
2023-05-05T16:12:48.817Z,26.28
2023-05-05T16:15:16.798Z,25.90
2023-05-05T16:17:44.752Z,25.71
2023-05-05T16:20:13.451Z,25.73
2023-05-05T16:22:42.865Z,25.42
2023-05-05T16:25:11.203Z,25.83
2023-05-05T16:27:39.322Z,25.25
2023-05-05T16:30:08.981Z,25.24
2023-05-05T16:32:37.392Z,25.32
2023-05-05T16:35:07.446Z,25.35
2023-05-05T16:37:36.680Z,25.30
2023-05-05T16:40:11.028Z,25.25
2023-05-05T16:42:43.704Z,25.40
2023-05-05T16:45:14.856Z,25.86
2023-05-05T16:47:43.544Z,24.78
2023-05-05T16:50:21.829Z,24.64
2023-05-05T16:53:02.462Z,24.71
2023-05-05T16:55:32.193Z,25.23
2023-05-05T16:58:11.463Z,25.08
2023-05-05T17:00:50.417Z,24.50
2023-05-05T17:03:21.967Z,24.21
2023-05-05T17:05:54.010Z,24.45
2023-05-05T17:08:34.310Z,24.74
2023-05-05T17:11:06.774Z,24.19
2023-05-05T17:13:37.756Z,33.52
2023-05-05T17:19:17.123Z,23.48
2023-05-05T17:21:52.748Z,22.91
2023-05-05T17:24:20.975Z,26.38
2023-05-05T17:26:59.819Z,23.55
2023-05-05T17:29:54.848Z,23.77
2023-05-05T17:32:25.965Z,24.16
2023-05-05T17:34:56.380Z,24.16
2023-05-05T17:37:32.740Z,24.14
2023-05-05T17:40:32.829Z,23.91
2023-05-05T17:43:05.382Z,24.31
2023-05-05T17:45:40.462Z,24.36
2023-05-05T17:48:08.879Z,24.62
2023-05-05T17:50:41.354Z,24.09
2023-05-05T17:53:12.049Z,24.25
2023-05-05T17:55:39.984Z,23.67
2023-05-05T17:58:09.288Z,23.46
2023-05-05T18:00:37.344Z,24.33
2023-05-05T18:03:06.497Z,23.97
2023-05-05T18:05:35.143Z,22.73
2023-05-05T18:08:05.579Z,21.60
2023-05-05T18:10:33.679Z,22.58
2023-05-05T18:13:01.719Z,22.31
2023-05-05T18:15:34.120Z,22.04
2023-05-05T18:18:02.931Z,21.87
2023-05-05T18:20:32.757Z,21.13
2023-05-05T18:23:02.261Z,22.69
2023-05-05T18:25:31.333Z,21.91
2023-05-05T18:27:59.503Z,22.30
2023-05-05T18:30:27.460Z,23.91
2023-05-05T18:32:57.658Z,23.52
2023-05-05T18:35:29.840Z,22.88
2023-05-05T18:37:58.106Z,23.57
2023-05-05T18:40:26.178Z,23.66
2023-05-05T18:42:54.425Z,23.56
2023-05-05T18:45:25.855Z,22.98
2023-05-05T18:47:53.926Z,22.38
2023-05-05T18:50:24.244Z,21.30
2023-05-05T18:52:52.651Z,21.72
2023-05-05T18:55:21.410Z,21.38
2023-05-05T18:57:49.794Z,21.62
2023-05-05T19:00:19.962Z,21.97
2023-05-05T19:02:48.250Z,21.50
2023-05-05T19:05:16.880Z,22.82
2023-05-05T19:07:46.380Z,22.60
2023-05-05T19:10:14.616Z,22.35
2023-05-05T19:12:45.539Z,21.91
2023-05-05T19:15:14.437Z,22.34
2023-05-05T19:17:42.874Z,22.39
2023-05-05T19:20:11.785Z,22.43
2023-05-05T19:22:39.896Z,23.11
2023-05-05T19:25:10.630Z,23.50
2023-05-05T19:27:39.067Z,24.11
2023-05-05T19:30:08.896Z,24.42
2023-05-05T19:32:37.673Z,24.03
2023-05-05T19:35:08.433Z,24.38
2023-05-05T19:37:36.949Z,23.40
2023-05-05T19:40:06.450Z,23.81
2023-05-05T19:42:36.480Z,23.96
2023-05-05T19:45:04.954Z,23.40
2023-05-05T19:47:36.359Z,22.90
2023-05-05T19:50:05.874Z,22.84
2023-05-05T19:52:33.913Z,22.95
2023-05-05T19:55:04.568Z,23.92
2023-05-05T19:57:33.097Z,24.79
2023-05-05T20:00:06.070Z,24.56
2023-05-05T20:02:37.045Z,23.32
2023-05-05T20:05:05.943Z,24.30
2023-05-05T20:07:37.168Z,24.28
2023-05-05T20:10:05.852Z,23.78
2023-05-05T20:12:34.274Z,24.01
2023-05-05T20:15:07.780Z,24.35
2023-05-05T20:17:36.077Z,24.96
2023-05-05T20:20:04.586Z,24.90
2023-05-05T20:22:33.133Z,24.68
2023-05-05T20:25:01.534Z,24.81
2023-05-05T20:27:30.096Z,23.68
2023-05-05T20:29:58.377Z,22.90
2023-05-05T20:32:28.849Z,22.80
2023-05-05T20:34:57.053Z,22.65
2023-05-05T20:37:27.556Z,23.36
2023-05-05T20:39:56.782Z,23.26
2023-05-05T20:42:25.639Z,22.21
2023-05-05T20:44:53.679Z,22.32
2023-05-05T20:47:21.654Z,22.03
2023-05-05T20:49:52.195Z,22.48
2023-05-05T20:52:20.561Z,22.10
2023-05-05T20:54:50.453Z,22.80
2023-05-05T20:57:18.781Z,22.43
2023-05-05T20:59:47.166Z,22.12
2023-05-05T21:02:15.375Z,22.31
2023-05-05T21:04:43.619Z,21.80
2023-05-05T21:07:13.090Z,22.36
2023-05-05T21:09:41.052Z,21.80
2023-05-05T21:12:09.210Z,21.68
2023-05-05T21:14:37.334Z,21.14
2023-05-05T21:17:07.672Z,21.61
2023-05-05T21:19:36.245Z,21.70
2023-05-05T21:22:04.474Z,21.28
2023-05-05T21:24:34.254Z,21.31
2023-05-05T21:27:04.519Z,21.38
2023-05-05T21:29:37.994Z,22.46
2023-05-05T21:32:06.996Z,22.27
2023-05-05T21:34:35.365Z,22.76
2023-05-05T21:37:03.754Z,22.53
2023-05-05T21:39:33.537Z,22.39
2023-05-05T21:42:01.976Z,21.54
2023-05-05T21:44:30.093Z,21.42
2023-05-05T21:46:58.509Z,21.61
2023-05-05T21:49:26.461Z,21.47
2023-05-05T21:51:54.429Z,22.21
2023-05-05T21:54:22.634Z,22.39
2023-05-05T21:56:52.079Z,22.93
2023-05-05T21:59:20.500Z,22.54
2023-05-05T22:01:50.448Z,22.75
2023-05-05T22:04:18.809Z,22.21
2023-05-05T22:06:47.164Z,22.47
2023-05-05T22:09:15.143Z,21.81
2023-05-05T22:11:43.326Z,21.89
2023-05-05T22:14:12.700Z,22.11
2023-05-05T22:16:40.567Z,22.51
2023-05-05T22:19:08.822Z,22.82
2023-05-05T22:21:36.889Z,23.10
2023-05-05T22:24:05.489Z,23.32
2023-05-05T22:26:33.791Z,23.33
2023-05-05T22:29:03.962Z,22.75
2023-05-05T22:31:33.444Z,22.54
2023-05-05T22:34:01.609Z,22.98
2023-05-05T22:36:29.871Z,22.87
2023-05-05T22:38:57.982Z,23.12
2023-05-05T22:41:26.263Z,23.37
2023-05-05T22:43:54.497Z,22.75
2023-05-05T22:46:22.746Z,23.09
2023-05-05T22:48:54.293Z,22.27
2023-05-05T22:51:23.347Z,22.35
2023-05-05T22:53:51.499Z,22.60
2023-05-05T22:56:22.066Z,22.54
2023-05-05T22:58:50.315Z,22.59
2023-05-05T23:01:18.365Z,22.54
2023-05-05T23:03:46.351Z,22.44
2023-05-05T23:06:15.757Z,22.78
2023-05-05T23:08:44.727Z,22.81
2023-05-05T23:11:12.912Z,23.09
2023-05-05T23:13:41.079Z,22.72
2023-05-05T23:16:09.653Z,22.60
2023-05-05T23:18:38.621Z,22.52
2023-05-05T23:21:06.751Z,22.62
2023-05-05T23:23:36.352Z,22.28
2023-05-05T23:26:04.496Z,21.82
2023-05-05T23:28:32.795Z,21.77
2023-05-05T23:31:01.198Z,22.04
2023-05-05T23:33:29.161Z,21.62
2023-05-05T23:35:57.311Z,21.97
2023-05-05T23:38:25.376Z,22.15
2023-05-05T23:40:55.030Z,22.63
2023-05-05T23:43:23.405Z,22.60
2023-05-05T23:45:51.720Z,22.34
2023-05-05T23:48:19.836Z,22.75
2023-05-05T23:50:47.951Z,22.43
2023-05-05T23:53:17.802Z,22.83
2023-05-05T23:55:45.641Z,22.06
2023-05-05T23:58:14.869Z,22.20
